Impacts TAF Board
For situational awareness. Not to be used for flight planning purposes.
IDs:

KTYR - Tyler/Pounds Fld, TX, US

Issued at 1544 UTC 03 Dec 2021
Updated at 1552 UTC 03 Dec 2021
Potential Impact None Slight Moderate High
Time<<04/16Z 04/17Z 04/18Z 04/19Z 04/20Z 04/21Z 04/22Z 04/23Z 05/00Z 05/01Z 05/02Z 05/03Z 05/04Z
Type
VIS
CIG
Cover
FltCat
WX
WDir
WSpd
WGst
WSHgt
WSDir
WSSpd
Raw TAF
KTYR 031544Z 0316/0412 19008KT 1SM BR OVC003
  FM032200 19011KT P6SM OVC100
  FM040600 19008KT P6SM OVC250


METAR Board
Radar Display
Forecast Discussion
For situational awareness. Not to be used for flight planning purposes.